YV2525 SVCS-SVBC
Flight info
| Callsign | YV2525 |
|---|---|
| Flight time | 0h 30m |
| Altitude | 18500 |
| Route | DCT |
| Aircraft | B350/L-SCD/S |
Departure
| Time | 2026-04-23 17:09 |
|---|---|
| Airport | Caracas Óscar Machado Zuloaga International Airport (SVCS) |
Arrival
| Time | 2026-04-23 17:40 |
|---|---|
| Airport | General José Antonio Anzoategui International Airport (SVBC) |
| Time | Latitude | Longitude | Altitude | Speed | Heading |
|---|---|---|---|---|---|
| 2026-04-23 17:02 | 10.28887 | -66.82090 | 2168 ft | 0 kts | 184° |
| 2026-04-23 17:06 | 10.28885 | -66.82091 | 2168 ft | 4 kts | 184° |
| 2026-04-23 17:06 | 10.28868 | -66.82116 | 2168 ft | 4 kts | 228° |
| 2026-04-23 17:07 | 10.28793 | -66.82123 | 2164 ft | 13 kts | 191° |
| 2026-04-23 17:07 | 10.28778 | -66.82142 | 2163 ft | 5 kts | 274° |
| 2026-04-23 17:07 | 10.28785 | -66.82241 | 2168 ft | 23 kts | 274° |
| 2026-04-23 17:07 | 10.28797 | -66.82430 | 2169 ft | 26 kts | 274° |
| 2026-04-23 17:08 | 10.28798 | -66.82518 | 2170 ft | 0 kts | 240° |
| 2026-04-23 17:08 | 10.28796 | -66.82520 | 2170 ft | 6 kts | 219° |
| 2026-04-23 17:08 | 10.28756 | -66.82516 | 2170 ft | 10 kts | 158° |
| 2026-04-23 17:08 | 10.28736 | -66.82374 | 2166 ft | 58 kts | 92° |
| 2026-04-23 17:09 | 10.28693 | -66.81620 | 2183 ft | 146 kts | 94° |
| 2026-04-23 17:09 | 10.28601 | -66.80473 | 2497 ft | 175 kts | 95° |
| 2026-04-23 17:09 | 10.28474 | -66.79204 | 3004 ft | 189 kts | 96° |
| 2026-04-23 17:09 | 10.28181 | -66.77749 | 2664 ft | 224 kts | 104° |
| 2026-04-23 17:10 | 10.27874 | -66.76224 | 2996 ft | 219 kts | 99° |
| 2026-04-23 17:10 | 10.27908 | -66.74747 | 3609 ft | 199 kts | 79° |
| 2026-04-23 17:10 | 10.28046 | -66.73459 | 4335 ft | 190 kts | 90° |
| 2026-04-23 17:10 | 10.27953 | -66.72108 | 4861 ft | 193 kts | 96° |
| 2026-04-23 17:11 | 10.27816 | -66.70739 | 5395 ft | 196 kts | 96° |
| 2026-04-23 17:11 | 10.27703 | -66.69354 | 5936 ft | 198 kts | 94° |
| 2026-04-23 17:11 | 10.27603 | -66.67957 | 6482 ft | 199 kts | 95° |
| 2026-04-23 17:11 | 10.27489 | -66.66546 | 7029 ft | 201 kts | 95° |
| 2026-04-23 17:12 | 10.27374 | -66.65124 | 7547 ft | 203 kts | 95° |
| 2026-04-23 17:12 | 10.27260 | -66.63685 | 8061 ft | 206 kts | 95° |
| 2026-04-23 17:12 | 10.27144 | -66.62230 | 8584 ft | 208 kts | 95° |
| 2026-04-23 17:12 | 10.27026 | -66.60757 | 9112 ft | 210 kts | 95° |
| 2026-04-23 17:13 | 10.26907 | -66.59272 | 9635 ft | 212 kts | 95° |
| 2026-04-23 17:13 | 10.26787 | -66.57779 | 10155 ft | 214 kts | 95° |
| 2026-04-23 17:13 | 10.26668 | -66.56292 | 10679 ft | 215 kts | 95° |
| 2026-04-23 17:13 | 10.26544 | -66.54770 | 11223 ft | 217 kts | 95° |
| 2026-04-23 17:14 | 10.26422 | -66.53241 | 11737 ft | 218 kts | 95° |
| 2026-04-23 17:14 | 10.26296 | -66.51697 | 12229 ft | 221 kts | 95° |
| 2026-04-23 17:14 | 10.26172 | -66.50133 | 12723 ft | 223 kts | 95° |
| 2026-04-23 17:14 | 10.26045 | -66.48559 | 13224 ft | 224 kts | 95° |
| 2026-04-23 17:15 | 10.25918 | -66.46978 | 13722 ft | 226 kts | 95° |
| 2026-04-23 17:15 | 10.25790 | -66.45380 | 14221 ft | 228 kts | 95° |
| 2026-04-23 17:15 | 10.25660 | -66.43770 | 14719 ft | 229 kts | 95° |
| 2026-04-23 17:15 | 10.25529 | -66.42155 | 15212 ft | 231 kts | 95° |
| 2026-04-23 17:16 | 10.25397 | -66.40523 | 15702 ft | 232 kts | 95° |
| 2026-04-23 17:16 | 10.25265 | -66.38884 | 16185 ft | 234 kts | 95° |
| 2026-04-23 17:16 | 10.25133 | -66.37253 | 16665 ft | 236 kts | 95° |
| 2026-04-23 17:16 | 10.24998 | -66.35590 | 17145 ft | 237 kts | 95° |
| 2026-04-23 17:17 | 10.24863 | -66.33918 | 17627 ft | 238 kts | 95° |
| 2026-04-23 17:17 | 10.24727 | -66.32234 | 18101 ft | 240 kts | 95° |
| 2026-04-23 17:17 | 10.24588 | -66.30531 | 18484 ft | 247 kts | 96° |
| 2026-04-23 17:17 | 10.24438 | -66.28725 | 18488 ft | 265 kts | 96° |
| 2026-04-23 17:18 | 10.24120 | -66.24830 | 18498 ft | 287 kts | 95° |
| 2026-04-23 17:18 | 10.23954 | -66.22786 | 18491 ft | 293 kts | 95° |
| 2026-04-23 17:18 | 10.23786 | -66.20708 | 18492 ft | 297 kts | 95° |
| 2026-04-23 17:19 | 10.23614 | -66.18605 | 18490 ft | 300 kts | 96° |
| 2026-04-23 17:19 | 10.23441 | -66.16486 | 18489 ft | 302 kts | 95° |
| 2026-04-23 17:19 | 10.23267 | -66.14352 | 18488 ft | 304 kts | 95° |
| 2026-04-23 17:19 | 10.23093 | -66.12210 | 18488 ft | 305 kts | 95° |
| 2026-04-23 17:20 | 10.22918 | -66.10064 | 18491 ft | 306 kts | 96° |
| 2026-04-23 17:20 | 10.22567 | -66.05761 | 18481 ft | 306 kts | 96° |
| 2026-04-23 17:21 | 10.22215 | -66.01479 | 18480 ft | 306 kts | 96° |
| 2026-04-23 17:21 | 10.22039 | -65.99322 | 18484 ft | 306 kts | 95° |
| 2026-04-23 17:21 | 10.21684 | -65.95001 | 18479 ft | 307 kts | 96° |
| 2026-04-23 17:22 | 10.21506 | -65.92845 | 18482 ft | 307 kts | 96° |
| 2026-04-23 17:22 | 10.21154 | -65.88557 | 18478 ft | 307 kts | 96° |
| 2026-04-23 17:23 | 10.20796 | -65.84234 | 18468 ft | 307 kts | 96° |
| 2026-04-23 17:23 | 10.20619 | -65.82073 | 18473 ft | 307 kts | 96° |
| 2026-04-23 17:23 | 10.20263 | -65.77750 | 18475 ft | 307 kts | 96° |
| 2026-04-23 17:24 | 10.20083 | -65.75584 | 18475 ft | 307 kts | 96° |
| 2026-04-23 17:24 | 10.19903 | -65.73425 | 18470 ft | 307 kts | 96° |
| 2026-04-23 17:24 | 10.19546 | -65.69106 | 18476 ft | 307 kts | 96° |
| 2026-04-23 17:25 | 10.19189 | -65.64814 | 18464 ft | 307 kts | 96° |
| 2026-04-23 17:25 | 10.19010 | -65.62653 | 18464 ft | 307 kts | 96° |
| 2026-04-23 17:26 | 10.18630 | -65.58236 | 17839 ft | 322 kts | 96° |
| 2026-04-23 17:26 | 10.18247 | -65.53649 | 17096 ft | 329 kts | 95° |
| 2026-04-23 17:27 | 10.17873 | -65.49018 | 16353 ft | 329 kts | 96° |
| 2026-04-23 17:27 | 10.17675 | -65.46707 | 15981 ft | 328 kts | 95° |
| 2026-04-23 17:27 | 10.17487 | -65.44435 | 15613 ft | 326 kts | 95° |
| 2026-04-23 17:27 | 10.17295 | -65.42146 | 15240 ft | 325 kts | 96° |
| 2026-04-23 17:28 | 10.17105 | -65.39867 | 14866 ft | 323 kts | 95° |
| 2026-04-23 17:28 | 10.16914 | -65.37603 | 14487 ft | 321 kts | 96° |
| 2026-04-23 17:28 | 10.16724 | -65.35356 | 14117 ft | 318 kts | 95° |
| 2026-04-23 17:28 | 10.16539 | -65.33122 | 13742 ft | 316 kts | 96° |
| 2026-04-23 17:29 | 10.16350 | -65.30901 | 13366 ft | 314 kts | 96° |
| 2026-04-23 17:29 | 10.16166 | -65.28700 | 12992 ft | 312 kts | 96° |
| 2026-04-23 17:29 | 10.15818 | -65.24334 | 12241 ft | 308 kts | 95° |
| 2026-04-23 17:30 | 10.15709 | -65.22901 | 11994 ft | 307 kts | 95° |
| 2026-04-23 17:30 | 10.15260 | -65.17899 | 11122 ft | 302 kts | 95° |
| 2026-04-23 17:30 | 10.15089 | -65.15805 | 10745 ft | 299 kts | 95° |
| 2026-04-23 17:31 | 10.14912 | -65.13705 | 10372 ft | 297 kts | 95° |
| 2026-04-23 17:31 | 10.14735 | -65.11621 | 9995 ft | 295 kts | 95° |
| 2026-04-23 17:31 | 10.14561 | -65.09562 | 9647 ft | 291 kts | 95° |
| 2026-04-23 17:31 | 10.14387 | -65.07524 | 9314 ft | 288 kts | 95° |
| 2026-04-23 17:32 | 10.14215 | -65.05508 | 9012 ft | 285 kts | 95° |
| 2026-04-23 17:32 | 10.14051 | -65.03516 | 8701 ft | 283 kts | 95° |
| 2026-04-23 17:32 | 10.13878 | -65.01535 | 8375 ft | 281 kts | 95° |
| 2026-04-23 17:32 | 10.13712 | -64.99594 | 8053 ft | 279 kts | 95° |
| 2026-04-23 17:33 | 10.13547 | -64.97643 | 7727 ft | 277 kts | 95° |
| 2026-04-23 17:33 | 10.13382 | -64.95705 | 7401 ft | 274 kts | 95° |
| 2026-04-23 17:33 | 10.13218 | -64.93758 | 7072 ft | 272 kts | 95° |
| 2026-04-23 17:33 | 10.13051 | -64.91846 | 6699 ft | 271 kts | 95° |
| 2026-04-23 17:34 | 10.12890 | -64.89946 | 6322 ft | 270 kts | 95° |
| 2026-04-23 17:34 | 10.12729 | -64.88056 | 5947 ft | 268 kts | 95° |
| 2026-04-23 17:34 | 10.12405 | -64.84306 | 5198 ft | 264 kts | 95° |
| 2026-04-23 17:35 | 10.12249 | -64.82545 | 4832 ft | 231 kts | 94° |
| 2026-04-23 17:35 | 10.12064 | -64.80131 | 4168 ft | 189 kts | 95° |
| 2026-04-23 17:35 | 10.11844 | -64.78429 | 3651 ft | 181 kts | 110° |
| 2026-04-23 17:36 | 10.11080 | -64.77530 | 3270 ft | 151 kts | 154° |
| 2026-04-23 17:36 | 10.10166 | -64.77260 | 2859 ft | 127 kts | 163° |
| 2026-04-23 17:36 | 10.09298 | -64.77035 | 2467 ft | 147 kts | 162° |
| 2026-04-23 17:36 | 10.08243 | -64.76761 | 2113 ft | 157 kts | 164° |
| 2026-04-23 17:37 | 10.07209 | -64.76504 | 1734 ft | 150 kts | 154° |
| 2026-04-23 17:37 | 10.06396 | -64.75914 | 1717 ft | 141 kts | 126° |
| 2026-04-23 17:37 | 10.05660 | -64.74120 | 1630 ft | 138 kts | 103° |
| 2026-04-23 17:38 | 10.05474 | -64.73168 | 1592 ft | 137 kts | 94° |
| 2026-04-23 17:38 | 10.05439 | -64.72198 | 1456 ft | 138 kts | 83° |
| 2026-04-23 17:38 | 10.05656 | -64.71258 | 1260 ft | 137 kts | 61° |
| 2026-04-23 17:38 | 10.06269 | -64.70560 | 1031 ft | 131 kts | 38° |
| 2026-04-23 17:39 | 10.07011 | -64.70055 | 814 ft | 121 kts | 27° |
| 2026-04-23 17:39 | 10.07721 | -64.69607 | 517 ft | 117 kts | 25° |
| 2026-04-23 17:39 | 10.08500 | -64.69406 | 300 ft | 115 kts | 13° |
| 2026-04-23 17:39 | 10.09284 | -64.69245 | 80 ft | 113 kts | 14° |
| 2026-04-23 17:40 | 10.09948 | -64.69094 | 36 ft | 81 kts | 13° |
| 2026-04-23 17:40 | 10.10304 | -64.69013 | 33 ft | 26 kts | 13° |
| 2026-04-23 17:40 | 10.10498 | -64.68969 | 31 ft | 33 kts | 14° |
| 2026-04-23 17:40 | 10.10701 | -64.68924 | 30 ft | 16 kts | 13° |
| 2026-04-23 17:41 | 10.10741 | -64.68867 | 29 ft | 17 kts | 90° |
| 2026-04-23 17:41 | 10.10729 | -64.68705 | 30 ft | 13 kts | 149° |
| 2026-04-23 17:41 | 10.10734 | -64.68662 | 30 ft | 1 kts | 46° |
| 2026-04-23 17:42 | 10.10759 | -64.68656 | 30 ft | 0 kts | 347° |